Aérodrome :
LOGIN :

S'inscrire | Disclaimer

   EN    FR    IT 

 










Légende :    VFR   VFR Marginal   IFR   IFR Intensif   IFR Très Intensif
Visi : 
Plafond : 
>= 8 km
>= 3000ft
5 à 8 km
1000 à 3000 ft
1500m à 5 km
500 à 1000 ft
800 à 1500m
200 à 500 ft
< 800m
< 200 ft
Symboles :   Orages  Brouillard  Fortes neiges  Fortes précipitations  Vent > 20 kt
SIGMETs :   Divers  Orages  Givrage  Turbulence  Onde Orograph.  Cendres Volcan.







- Altitude de l'aérodrome : 1300 ft
- Code IATA : LIG
- Voir les cartes d'approche


LFBL - Limoges

DERNIER METAR :
  • 280030Z AUTO 30006KT CAVOK 02/M00 Q1019 NOSIG

METARs EXPIRÉS :
  • 280000Z AUTO 32005KT CAVOK 02/M00 Q1019 NOSIG
  • 272330Z AUTO 32005KT CAVOK 03/M00 Q1019 NOSIG
  • 272300Z AUTO 33006KT CAVOK 03/00 Q1018 NOSIG
  • 272230Z AUTO 34005KT CAVOK 03/00 Q1019 NOSIG
  • 272200Z AUTO 34004KT CAVOK 03/00 Q1018 NOSIG
  • 272130Z AUTO 34005KT CAVOK 03/M00 Q1019 NOSIG

TAF TAF LFBL
Valide du 28 à 00h jusqu'au 29 à 00h UTC


272300Z 2800/2824 35006KT CAVOK
TEMPO 2803/2808 2000 BR BKN002
BECMG 2809/2811 SCT030TCU
PROB40
TEMPO 2811/2816 4000 SHRA BKN030TCU
BECMG 2818/2820 CAVOK
ATIS : +33 5 55 48 40 37
Pas de NOTAMs connus pour ce terrain.



MET'MAP, la Météo Aéronautique d'un coup d'oeil ! - Copyright ORBIFLY Décembre 2007 - Disclaimer

ORBIFLY MET'MAP TEAM :

Programmation & Développement : Alexandra Zaïnal
Conception & Développement : Baudouin d'Aumeries
Co-Programmation & Développement : Marc-Olivier Méhu
Soutien technique & logistique : Manuel Goepfert

Contact : metmap@orbifly.com




SOURCES & CREDITS :

   NOAA